sensor_id;sensor_type;location;lat;lon;timestamp;pressure;altitude;pressure_sealevel;temperature;humidity
77517;BME280;66628;53.946;27.634;2023-02-03T00:00:38;98080.171875;;;18.799999;29.270508
77517;BME280;66628;53.946;27.634;2023-02-03T00:01:38;98082.171875;;;18.790001;29.359375
77517;BME280;66628;53.946;27.634;2023-02-03T00:02:38;98084.593750;;;18.780001;29.592773
77517;BME280;66628;53.946;27.634;2023-02-03T00:03:38;98081.750000;;;18.780001;29.660156
77517;BME280;66628;53.946;27.634;2023-02-03T00:04:38;98082.335938;;;18.840000;29.931641
77517;BME280;66628;53.946;27.634;2023-02-03T00:05:38;98085.601562;;;18.840000;29.752930
77517;BME280;66628;53.946;27.634;2023-02-03T00:06:38;98083.687500;;;18.840000;29.730469
77517;BME280;66628;53.946;27.634;2023-02-03T00:07:38;98082.500000;;;18.850000;29.731445
77517;BME280;66628;53.946;27.634;2023-02-03T00:08:38;98083.906250;;;18.870001;29.666016
77517;BME280;66628;53.946;27.634;2023-02-03T00:09:38;98081.843750;;;18.850000;29.764648
77517;BME280;66628;53.946;27.634;2023-02-03T00:10:38;98083.796875;;;18.879999;30.024414
77517;BME280;66628;53.946;27.634;2023-02-03T00:11:38;98086.234375;;;18.910000;29.780273
77517;BME280;66628;53.946;27.634;2023-02-03T00:12:38;98084.507812;;;18.950001;30.073242
77517;BME280;66628;53.946;27.634;2023-02-03T00:13:38;98084.296875;;;18.940001;29.804688
77517;BME280;66628;53.946;27.634;2023-02-03T00:14:39;98086.062500;;;18.910000;29.712891
77517;BME280;66628;53.946;27.634;2023-02-03T00:15:39;98084.445312;;;18.879999;29.699219
77517;BME280;66628;53.946;27.634;2023-02-03T00:16:38;98085.617188;;;18.879999;29.833984
77517;BME280;66628;53.946;27.634;2023-02-03T00:17:38;98087.992188;;;18.860001;29.777344
77517;BME280;66628;53.946;27.634;2023-02-03T00:18:38;98087.906250;;;18.850000;29.708984
77517;BME280;66628;53.946;27.634;2023-02-03T00:19:38;98089.929688;;;18.870001;29.833984
77517;BME280;66628;53.946;27.634;2023-02-03T00:20:38;98092.179688;;;18.860001;29.866211
77517;BME280;66628;53.946;27.634;2023-02-03T00:21:38;98095.203125;;;18.860001;29.720703
77517;BME280;66628;53.946;27.634;2023-02-03T00:22:38;98096.953125;;;18.879999;29.856445
77517;BME280;66628;53.946;27.634;2023-02-03T00:23:40;98097.164062;;;18.870001;29.666016
77517;BME280;66628;53.946;27.634;2023-02-03T00:24:38;98097.812500;;;18.799999;29.471680
77517;BME280;66628;53.946;27.634;2023-02-03T00:25:38;98099.140625;;;18.790001;29.515625
77517;BME280;66628;53.946;27.634;2023-02-03T00:26:41;98100.468750;;;18.750000;29.423828
77517;BME280;66628;53.946;27.634;2023-02-03T00:27:38;98098.500000;;;18.709999;29.286133
77517;BME280;66628;53.946;27.634;2023-02-03T00:28:38;98098.671875;;;18.680000;29.229492
77517;BME280;66628;53.946;27.634;2023-02-03T00:29:38;98100.406250;;;18.690001;29.430664
77517;BME280;66628;53.946;27.634;2023-02-03T00:30:38;98100.039062;;;18.690001;29.340820
77517;BME280;66628;53.946;27.634;2023-02-03T00:31:38;98102.765625;;;18.670000;29.149414
77517;BME280;66628;53.946;27.634;2023-02-03T00:32:38;98098.710938;;;18.620001;29.056641
77517;BME280;66628;53.946;27.634;2023-02-03T00:33:38;98102.523438;;;18.650000;29.606445
77517;BME280;66628;53.946;27.634;2023-02-03T00:34:38;98100.062500;;;18.730000;29.678711
77517;BME280;66628;53.946;27.634;2023-02-03T00:35:38;98102.156250;;;18.730000;29.589844
77517;BME280;66628;53.946;27.634;2023-02-03T00:36:38;98100.710938;;;18.790001;29.873047
77517;BME280;66628;53.946;27.634;2023-02-03T00:37:41;98104.257812;;;18.850000;29.854492
77517;BME280;66628;53.946;27.634;2023-02-03T00:38:38;98105.562500;;;18.830000;29.730469
77517;BME280;66628;53.946;27.634;2023-02-03T00:39:38;98109.156250;;;18.840000;29.541016
77517;BME280;66628;53.946;27.634;2023-02-03T00:40:38;98108.156250;;;18.840000;29.674805
77517;BME280;66628;53.946;27.634;2023-02-03T00:41:38;98106.171875;;;18.910000;30.004883
77517;BME280;66628;53.946;27.634;2023-02-03T00:42:38;98106.093750;;;18.930000;29.781250
77517;BME280;66628;53.946;27.634;2023-02-03T00:43:38;98105.921875;;;18.920000;29.479492
77517;BME280;66628;53.946;27.634;2023-02-03T00:44:38;98110.046875;;;18.950001;29.670898
77517;BME280;66628;53.946;27.634;2023-02-03T00:45:38;98110.578125;;;18.969999;29.627930
77517;BME280;66628;53.946;27.634;2023-02-03T00:46:38;98105.218750;;;18.950001;29.592773
77517;BME280;66628;53.946;27.634;2023-02-03T00:47:38;98108.531250;;;18.930000;29.569336
77517;BME280;66628;53.946;27.634;2023-02-03T00:48:38;98107.296875;;;18.910000;29.545898
77517;BME280;66628;53.946;27.634;2023-02-03T00:49:38;98107.671875;;;18.920000;29.557617
77517;BME280;66628;53.946;27.634;2023-02-03T00:50:38;98105.007812;;;19.040001;29.732422
77517;BME280;66628;53.946;27.634;2023-02-03T00:51:38;98108.859375;;;19.180000;29.977539
77517;BME280;66628;53.946;27.634;2023-02-03T00:52:38;98108.718750;;;19.299999;30.007812
77517;BME280;66628;53.946;27.634;2023-02-03T00:53:38;98107.367188;;;19.420000;30.250977
77517;BME280;66628;53.946;27.634;2023-02-03T00:54:38;98104.968750;;;19.530001;29.822266
77517;BME280;66628;53.946;27.634;2023-02-03T00:55:38;98106.460938;;;19.629999;29.750000
77517;BME280;66628;53.946;27.634;2023-02-03T00:56:38;98107.921875;;;19.690001;29.777344
77517;BME280;66628;53.946;27.634;2023-02-03T00:57:38;98106.984375;;;19.750000;29.735352
77517;BME280;66628;53.946;27.634;2023-02-03T00:58:38;98116.250000;;;19.790001;29.996094
77517;BME280;66628;53.946;27.634;2023-02-03T00:59:38;98112.734375;;;19.830000;29.831055
77517;BME280;66628;53.946;27.634;2023-02-03T01:00:38;98115.468750;;;19.879999;30.001953
77517;BME280;66628;53.946;27.634;2023-02-03T01:01:38;98116.968750;;;19.930000;29.926758
77517;BME280;66628;53.946;27.634;2023-02-03T01:02:38;98119.242188;;;19.969999;30.154297
77517;BME280;66628;53.946;27.634;2023-02-03T01:03:39;98122.101562;;;20.000000;29.875977
77517;BME280;66628;53.946;27.634;2023-02-03T01:04:38;98118.562500;;;20.040001;29.934570
77517;BME280;66628;53.946;27.634;2023-02-03T01:05:38;98119.257812;;;20.059999;30.082031
77517;BME280;66628;53.946;27.634;2023-02-03T01:06:38;98121.281250;;;20.080000;30.039062
77517;BME280;66628;53.946;27.634;2023-02-03T01:07:38;98117.398438;;;20.110001;29.760742
77517;BME280;66628;53.946;27.634;2023-02-03T01:08:38;98119.843750;;;20.150000;29.762695
77517;BME280;66628;53.946;27.634;2023-02-03T01:09:38;98122.039062;;;20.180000;29.731445
77517;BME280;66628;53.946;27.634;2023-02-03T01:10:38;98116.648438;;;20.190001;29.833008
77517;BME280;66628;53.946;27.634;2023-02-03T01:11:38;98119.570312;;;20.209999;29.878906
77517;BME280;66628;53.946;27.634;2023-02-03T01:12:38;98122.625000;;;20.230000;29.969727
77517;BME280;66628;53.946;27.634;2023-02-03T01:13:38;98123.328125;;;20.250000;29.881836
77517;BME280;66628;53.946;27.634;2023-02-03T01:14:38;98123.875000;;;20.270000;29.804688
77517;BME280;66628;53.946;27.634;2023-02-03T01:15:44;98122.843750;;;20.270000;29.704102
77517;BME280;66628;53.946;27.634;2023-02-03T01:16:39;98124.296875;;;20.270000;29.759766
77517;BME280;66628;53.946;27.634;2023-02-03T01:17:38;98123.562500;;;20.280001;29.670898
77517;BME280;66628;53.946;27.634;2023-02-03T01:18:39;98123.335938;;;20.280001;29.625000
77517;BME280;66628;53.946;27.634;2023-02-03T01:19:38;98120.734375;;;20.290001;29.794922
77517;BME280;66628;53.946;27.634;2023-02-03T01:20:38;98118.562500;;;20.299999;29.626953
77517;BME280;66628;53.946;27.634;2023-02-03T01:21:38;98118.312500;;;20.299999;29.616211
77517;BME280;66628;53.946;27.634;2023-02-03T01:22:38;98121.281250;;;20.299999;29.616211
77517;BME280;66628;53.946;27.634;2023-02-03T01:23:38;98123.296875;;;20.309999;29.583008
77517;BME280;66628;53.946;27.634;2023-02-03T01:24:38;98125.148438;;;20.309999;29.605469
77517;BME280;66628;53.946;27.634;2023-02-03T01:25:38;98124.343750;;;20.330000;29.663086
77517;BME280;66628;53.946;27.634;2023-02-03T01:26:38;98125.093750;;;20.330000;29.696289
77517;BME280;66628;53.946;27.634;2023-02-03T01:27:38;98126.781250;;;20.340000;29.584961
77517;BME280;66628;53.946;27.634;2023-02-03T01:28:38;98128.054688;;;20.340000;29.607422
77517;BME280;66628;53.946;27.634;2023-02-03T01:29:38;98129.164062;;;20.350000;29.608398
77517;BME280;66628;53.946;27.634;2023-02-03T01:30:38;98130.718750;;;20.360001;29.709961
77517;BME280;66628;53.946;27.634;2023-02-03T01:31:39;98130.437500;;;20.350000;29.765625
77517;BME280;66628;53.946;27.634;2023-02-03T01:32:38;98132.359375;;;20.370001;29.643555
77517;BME280;66628;53.946;27.634;2023-02-03T01:33:38;98132.937500;;;20.379999;29.710938
77517;BME280;66628;53.946;27.634;2023-02-03T01:34:38;98131.875000;;;20.379999;29.811523
77517;BME280;66628;53.946;27.634;2023-02-03T01:35:43;98134.539062;;;20.389999;29.902344
77517;BME280;66628;53.946;27.634;2023-02-03T01:36:38;98137.015625;;;20.400000;29.880859
77517;BME280;66628;53.946;27.634;2023-02-03T01:37:38;98139.335938;;;20.400000;29.993164
77517;BME280;66628;53.946;27.634;2023-02-03T01:38:38;98136.062500;;;20.410000;30.060547
77517;BME280;66628;53.946;27.634;2023-02-03T01:39:38;98142.546875;;;20.420000;30.240234
77517;BME280;66628;53.946;27.634;2023-02-03T01:40:42;98142.203125;;;20.420000;30.183594
77517;BME280;66628;53.946;27.634;2023-02-03T01:41:38;98144.234375;;;20.430000;30.307617
77517;BME280;66628;53.946;27.634;2023-02-03T01:42:38;98139.476562;;;20.430000;30.320312
77517;BME280;66628;53.946;27.634;2023-02-03T01:43:39;98142.195312;;;20.440001;30.219727
77517;BME280;66628;53.946;27.634;2023-02-03T01:44:43;98145.093750;;;20.440001;30.230469
77517;BME280;66628;53.946;27.634;2023-02-03T01:45:38;98145.515625;;;20.440001;30.488281
77517;BME280;66628;53.946;27.634;2023-02-03T01:46:40;98147.734375;;;20.450001;30.332031
77517;BME280;66628;53.946;27.634;2023-02-03T01:48:38;98145.945312;;;20.450001;30.153320
77517;BME280;66628;53.946;27.634;2023-02-03T01:49:38;98142.671875;;;20.459999;30.343750
77517;BME280;66628;53.946;27.634;2023-02-03T01:50:38;98148.539062;;;20.459999;30.310547
77517;BME280;66628;53.946;27.634;2023-02-03T01:51:38;98146.375000;;;20.469999;30.400391
77517;BME280;66628;53.946;27.634;2023-02-03T01:52:39;98150.500000;;;20.469999;30.299805
77517;BME280;66628;53.946;27.634;2023-02-03T01:53:38;98150.585938;;;20.480000;30.166016
77517;BME280;66628;53.946;27.634;2023-02-03T01:54:40;98149.984375;;;20.480000;30.390625
77517;BME280;66628;53.946;27.634;2023-02-03T01:55:39;98155.625000;;;20.490000;30.402344
77517;BME280;66628;53.946;27.634;2023-02-03T01:56:39;98154.945312;;;20.490000;30.334961
77517;BME280;66628;53.946;27.634;2023-02-03T01:58:38;98153.875000;;;20.510000;30.291016
77517;BME280;66628;53.946;27.634;2023-02-03T01:59:38;98154.562500;;;20.520000;30.583008
77517;BME280;66628;53.946;27.634;2023-02-03T02:00:39;98155.039062;;;20.510000;30.503906
77517;BME280;66628;53.946;27.634;2023-02-03T02:01:38;98154.968750;;;20.530001;30.595703
77517;BME280;66628;53.946;27.634;2023-02-03T02:02:38;98155.031250;;;20.530001;30.573242
77517;BME280;66628;53.946;27.634;2023-02-03T02:06:38;98155.015625;;;20.549999;30.193359
77517;BME280;66628;53.946;27.634;2023-02-03T02:07:38;98156.304688;;;20.559999;30.305664
77517;BME280;66628;53.946;27.634;2023-02-03T02:08:39;98157.273438;;;20.559999;30.284180
77517;BME280;66628;53.946;27.634;2023-02-03T02:09:38;98154.437500;;;20.570000;30.228516
77517;BME280;66628;53.946;27.634;2023-02-03T02:10:38;98153.328125;;;20.580000;30.340820
77517;BME280;66628;53.946;27.634;2023-02-03T02:11:38;98154.515625;;;20.580000;30.419922
77517;BME280;66628;53.946;27.634;2023-02-03T02:12:38;98154.046875;;;20.590000;30.340820
77517;BME280;66628;53.946;27.634;2023-02-03T02:13:38;98151.578125;;;20.600000;30.353516
77517;BME280;66628;53.946;27.634;2023-02-03T02:14:38;98153.312500;;;20.590000;30.353516
77517;BME280;66628;53.946;27.634;2023-02-03T02:22:43;98152.554688;;;20.629999;30.580078
77517;BME280;66628;53.946;27.634;2023-02-03T02:23:49;98149.531250;;;20.629999;30.344727
77517;BME280;66628;53.946;27.634;2023-02-03T02:24:48;98148.789062;;;20.629999;30.344727
77517;BME280;66628;53.946;27.634;2023-02-03T02:28:49;98146.781250;;;20.629999;30.344727
77517;BME280;66628;53.946;27.634;2023-02-03T02:33:42;98160.156250;;;20.650000;30.334961
77517;BME280;66628;53.946;27.634;2023-02-03T02:40:43;98168.984375;;;20.660000;30.369141
77517;BME280;66628;53.946;27.634;2023-02-03T02:41:40;98170.171875;;;20.670000;30.347656
77517;BME280;66628;53.946;27.634;2023-02-03T02:42:40;98170.398438;;;20.670000;30.358398
77517;BME280;66628;53.946;27.634;2023-02-03T02:43:40;98174.945312;;;20.670000;30.358398
77517;BME280;66628;53.946;27.634;2023-02-03T02:44:40;98173.593750;;;20.670000;30.415039
77517;BME280;66628;53.946;27.634;2023-02-03T02:45:40;98171.062500;;;20.680000;30.515625
77517;BME280;66628;53.946;27.634;2023-02-03T02:47:38;98174.562500;;;20.680000;30.437500
77517;BME280;66628;53.946;27.634;2023-02-03T02:49:42;98177.296875;;;20.690001;30.405273
77517;BME280;66628;53.946;27.634;2023-02-03T02:50:39;98177.390625;;;20.690001;30.528320
77517;BME280;66628;53.946;27.634;2023-02-03T02:51:38;98175.125000;;;20.690001;30.472656
77517;BME280;66628;53.946;27.634;2023-02-03T02:52:39;98181.421875;;;20.690001;30.472656
77517;BME280;66628;53.946;27.634;2023-02-03T02:53:39;98179.843750;;;20.690001;30.583984
77517;BME280;66628;53.946;27.634;2023-02-03T02:54:39;98177.187500;;;20.700001;30.595703
77517;BME280;66628;53.946;27.634;2023-02-03T02:55:38;98179.414062;;;20.700001;30.539062
77517;BME280;66628;53.946;27.634;2023-02-03T02:56:38;98184.312500;;;20.700001;30.595703
77517;BME280;66628;53.946;27.634;2023-02-03T02:57:38;98183.359375;;;20.700001;30.619141
77517;BME280;66628;53.946;27.634;2023-02-03T02:58:38;98182.484375;;;20.700001;30.562500
77517;BME280;66628;53.946;27.634;2023-02-03T02:59:38;98185.000000;;;20.709999;30.518555
77517;BME280;66628;53.946;27.634;2023-02-03T03:00:38;98184.867188;;;20.709999;30.496094
77517;BME280;66628;53.946;27.634;2023-02-03T03:01:38;98187.140625;;;20.709999;30.563477
77517;BME280;66628;53.946;27.634;2023-02-03T03:02:38;98187.320312;;;20.709999;30.551758
77517;BME280;66628;53.946;27.634;2023-02-03T03:03:38;98189.242188;;;20.709999;30.551758
77517;BME280;66628;53.946;27.634;2023-02-03T03:04:38;98191.085938;;;20.709999;30.653320
77517;BME280;66628;53.946;27.634;2023-02-03T03:05:38;98192.281250;;;20.719999;30.844727
77517;BME280;66628;53.946;27.634;2023-02-03T03:06:42;98195.507812;;;20.719999;30.630859
77517;BME280;66628;53.946;27.634;2023-02-03T03:07:40;98196.703125;;;20.719999;30.687500
77517;BME280;66628;53.946;27.634;2023-02-03T03:08:40;98198.359375;;;20.719999;30.720703
77517;BME280;66628;53.946;27.634;2023-02-03T03:09:45;98205.296875;;;20.730000;30.621094
77517;BME280;66628;53.946;27.634;2023-02-03T03:10:38;98203.414062;;;20.730000;30.609375
77517;BME280;66628;53.946;27.634;2023-02-03T03:12:40;98205.812500;;;20.750000;30.935547
77517;BME280;66628;53.946;27.634;2023-02-03T03:13:40;98209.281250;;;20.750000;31.059570
77517;BME280;66628;53.946;27.634;2023-02-03T03:14:39;98211.046875;;;20.760000;30.937500
77517;BME280;66628;53.946;27.634;2023-02-03T03:15:38;98211.460938;;;20.770000;30.915039
77517;BME280;66628;53.946;27.634;2023-02-03T03:16:38;98209.328125;;;20.780001;31.049805
77517;BME280;66628;53.946;27.634;2023-02-03T03:17:41;98213.656250;;;20.770000;31.004883
77517;BME280;66628;53.946;27.634;2023-02-03T03:18:40;98211.125000;;;20.780001;30.881836
77517;BME280;66628;53.946;27.634;2023-02-03T03:19:39;98210.867188;;;20.780001;31.128906
77517;BME280;66628;53.946;27.634;2023-02-03T03:20:38;98212.171875;;;20.780001;31.004883
77517;BME280;66628;53.946;27.634;2023-02-03T03:21:42;98211.046875;;;20.780001;31.005859
77517;BME280;66628;53.946;27.634;2023-02-03T03:22:40;98216.578125;;;20.790001;31.118164
77517;BME280;66628;53.946;27.634;2023-02-03T03:23:39;98215.000000;;;20.790001;31.073242
77517;BME280;66628;53.946;27.634;2023-02-03T03:25:39;98209.234375;;;20.790001;31.218750
77517;BME280;66628;53.946;27.634;2023-02-03T03:26:44;98210.921875;;;20.790001;31.241211
77517;BME280;66628;53.946;27.634;2023-02-03T03:27:39;98215.242188;;;20.780001;31.118164
77517;BME280;66628;53.946;27.634;2023-02-03T03:28:44;98217.218750;;;20.790001;31.005859
77517;BME280;66628;53.946;27.634;2023-02-03T03:29:42;98216.164062;;;20.790001;30.960938
77517;BME280;66628;53.946;27.634;2023-02-03T03:30:38;98216.164062;;;20.790001;30.960938
77517;BME280;66628;53.946;27.634;2023-02-03T03:31:38;98221.375000;;;20.780001;30.916016
77517;BME280;66628;53.946;27.634;2023-02-03T03:32:38;98223.187500;;;20.790001;31.061523
77517;BME280;66628;53.946;27.634;2023-02-03T03:33:38;98220.828125;;;20.790001;31.252930
77517;BME280;66628;53.946;27.634;2023-02-03T03:34:38;98224.453125;;;20.790001;31.208008
77517;BME280;66628;53.946;27.634;2023-02-03T03:35:43;98225.468750;;;20.799999;31.186523
77517;BME280;66628;53.946;27.634;2023-02-03T03:37:42;98226.140625;;;20.809999;31.265625
77517;BME280;66628;53.946;27.634;2023-02-03T03:38:40;98222.687500;;;20.809999;31.232422
77517;BME280;66628;53.946;27.634;2023-02-03T03:40:40;98222.578125;;;20.820000;31.243164
77517;BME280;66628;53.946;27.634;2023-02-03T03:42:43;98226.343750;;;20.820000;31.266602
77517;BME280;66628;53.946;27.634;2023-02-03T03:43:38;98224.195312;;;20.820000;31.277344
77517;BME280;66628;53.946;27.634;2023-02-03T03:44:40;98225.953125;;;20.820000;31.277344
77517;BME280;66628;53.946;27.634;2023-02-03T03:46:45;98227.312500;;;20.830000;31.165039
77517;BME280;66628;53.946;27.634;2023-02-03T03:47:43;98226.875000;;;20.820000;31.165039
77517;BME280;66628;53.946;27.634;2023-02-03T03:48:42;98230.562500;;;20.830000;31.188477
77517;BME280;66628;53.946;27.634;2023-02-03T03:49:38;98227.234375;;;20.830000;31.188477
77517;BME280;66628;53.946;27.634;2023-02-03T03:50:41;98228.062500;;;20.830000;31.200195
77517;BME280;66628;53.946;27.634;2023-02-03T03:52:38;98234.632812;;;20.830000;31.245117
77517;BME280;66628;53.946;27.634;2023-02-03T03:53:39;98233.593750;;;20.840000;31.200195
77517;BME280;66628;53.946;27.634;2023-02-03T03:54:38;98236.226562;;;20.840000;31.177734
77517;BME280;66628;53.946;27.634;2023-02-03T03:55:38;98241.664062;;;20.850000;31.234375
77517;BME280;66628;53.946;27.634;2023-02-03T03:56:40;98238.546875;;;20.840000;31.132812
77517;BME280;66628;53.946;27.634;2023-02-03T03:58:38;98239.203125;;;20.860001;31.190430
77517;BME280;66628;53.946;27.634;2023-02-03T03:59:38;98244.937500;;;20.860001;31.247070
77517;BME280;66628;53.946;27.634;2023-02-03T04:00:38;98243.093750;;;20.860001;31.257812
77517;BME280;66628;53.946;27.634;2023-02-03T04:01:38;98246.687500;;;20.860001;31.280273
77517;BME280;66628;53.946;27.634;2023-02-03T04:02:38;98245.937500;;;20.860001;31.202148
77517;BME280;66628;53.946;27.634;2023-02-03T04:03:39;98242.539062;;;20.870001;31.190430
77517;BME280;66628;53.946;27.634;2023-02-03T04:04:38;98251.117188;;;20.870001;31.202148
77517;BME280;66628;53.946;27.634;2023-02-03T04:05:38;98251.609375;;;20.870001;31.236328
77517;BME280;66628;53.946;27.634;2023-02-03T04:06:38;98253.359375;;;20.870001;31.303711
77517;BME280;66628;53.946;27.634;2023-02-03T04:08:38;98256.507812;;;20.870001;31.326172
77517;BME280;66628;53.946;27.634;2023-02-03T04:09:38;98254.468750;;;20.879999;31.326172
77517;BME280;66628;53.946;27.634;2023-02-03T04:10:39;98255.234375;;;20.870001;31.247070
77517;BME280;66628;53.946;27.634;2023-02-03T04:11:38;98260.187500;;;20.870001;31.281250
77517;BME280;66628;53.946;27.634;2023-02-03T04:12:38;98261.585938;;;20.870001;31.224609
77517;BME280;66628;53.946;27.634;2023-02-03T04:13:38;98258.125000;;;20.879999;31.180664
77517;BME280;66628;53.946;27.634;2023-02-03T04:14:38;98257.843750;;;20.879999;31.337891
77517;BME280;66628;53.946;27.634;2023-02-03T04:15:38;98254.343750;;;20.879999;31.292969
77517;BME280;66628;53.946;27.634;2023-02-03T04:16:38;98256.968750;;;20.879999;31.348633
77517;BME280;66628;53.946;27.634;2023-02-03T04:17:38;98255.218750;;;20.879999;31.203125
77517;BME280;66628;53.946;27.634;2023-02-03T04:18:38;98255.343750;;;20.879999;31.248047
77517;BME280;66628;53.946;27.634;2023-02-03T04:19:38;98259.718750;;;20.879999;31.337891
77517;BME280;66628;53.946;27.634;2023-02-03T04:20:38;98258.195312;;;20.879999;31.225586
77517;BME280;66628;53.946;27.634;2023-02-03T04:21:38;98260.789062;;;20.889999;31.192383
77517;BME280;66628;53.946;27.634;2023-02-03T04:22:38;98262.093750;;;20.879999;31.270508
77517;BME280;66628;53.946;27.634;2023-02-03T04:23:38;98257.234375;;;20.889999;31.147461
77517;BME280;66628;53.946;27.634;2023-02-03T04:24:38;98263.796875;;;20.879999;31.203125
77517;BME280;66628;53.946;27.634;2023-02-03T04:25:38;98264.468750;;;20.889999;31.360352
77517;BME280;66628;53.946;27.634;2023-02-03T04:26:38;98263.640625;;;20.889999;31.226562
77517;BME280;66628;53.946;27.634;2023-02-03T04:27:38;98262.890625;;;20.889999;31.282227
77517;BME280;66628;53.946;27.634;2023-02-03T04:28:38;98271.031250;;;20.889999;31.293945
77517;BME280;66628;53.946;27.634;2023-02-03T04:29:38;98273.562500;;;20.889999;31.405273
77517;BME280;66628;53.946;27.634;2023-02-03T04:30:38;98273.437500;;;20.889999;31.327148
77517;BME280;66628;53.946;27.634;2023-02-03T04:31:38;98270.593750;;;20.889999;31.293945
77517;BME280;66628;53.946;27.634;2023-02-03T04:32:38;98270.156250;;;20.889999;31.427734
77517;BME280;66628;53.946;27.634;2023-02-03T04:33:38;98270.984375;;;20.889999;31.304688
77517;BME280;66628;53.946;27.634;2023-02-03T04:34:38;98271.390625;;;20.889999;31.382812
77517;BME280;66628;53.946;27.634;2023-02-03T04:35:38;98271.953125;;;20.900000;31.619141
77517;BME280;66628;53.946;27.634;2023-02-03T04:36:38;98271.796875;;;20.900000;31.462891
77517;BME280;66628;53.946;27.634;2023-02-03T04:37:38;98270.625000;;;20.900000;31.462891
77517;BME280;66628;53.946;27.634;2023-02-03T04:38:38;98270.750000;;;20.900000;31.473633
77517;BME280;66628;53.946;27.634;2023-02-03T04:39:38;98272.023438;;;20.900000;31.384766
77517;BME280;66628;53.946;27.634;2023-02-03T04:40:38;98272.375000;;;20.900000;31.407227
77517;BME280;66628;53.946;27.634;2023-02-03T04:41:38;98273.250000;;;20.900000;31.586914
77517;BME280;66628;53.946;27.634;2023-02-03T04:42:38;98271.984375;;;20.910000;31.497070
77517;BME280;66628;53.946;27.634;2023-02-03T04:43:38;98274.437500;;;20.910000;31.417969
77517;BME280;66628;53.946;27.634;2023-02-03T04:44:38;98274.234375;;;20.920000;31.586914
77517;BME280;66628;53.946;27.634;2023-02-03T04:45:38;98274.234375;;;20.940001;31.577148
77517;BME280;66628;53.946;27.634;2023-02-03T04:46:38;98276.640625;;;20.910000;31.497070
77517;BME280;66628;53.946;27.634;2023-02-03T04:47:38;98275.812500;;;20.879999;31.045898
77517;BME280;66628;53.946;27.634;2023-02-03T04:48:38;98279.789062;;;20.889999;30.721680
77517;BME280;66628;53.946;27.634;2023-02-03T04:49:38;98282.718750;;;20.910000;30.980469
77517;BME280;66628;53.946;27.634;2023-02-03T04:50:38;98283.062500;;;20.910000;30.947266
77517;BME280;66628;53.946;27.634;2023-02-03T04:51:38;98285.828125;;;20.920000;31.116211
77517;BME280;66628;53.946;27.634;2023-02-03T04:52:38;98286.898438;;;20.920000;31.105469
77517;BME280;66628;53.946;27.634;2023-02-03T04:53:38;98290.546875;;;20.930000;31.250977
77517;BME280;66628;53.946;27.634;2023-02-03T04:54:38;98288.664062;;;20.930000;31.340820
77517;BME280;66628;53.946;27.634;2023-02-03T04:55:38;98292.164062;;;20.930000;31.330078
77517;BME280;66628;53.946;27.634;2023-02-03T04:56:39;98291.210938;;;20.940001;31.364258
77517;BME280;66628;53.946;27.634;2023-02-03T04:57:38;98288.812500;;;20.940001;31.397461
77517;BME280;66628;53.946;27.634;2023-02-03T04:58:38;98292.023438;;;20.940001;31.341797
77517;BME280;66628;53.946;27.634;2023-02-03T04:59:38;98292.203125;;;20.940001;31.331055
77517;BME280;66628;53.946;27.634;2023-02-03T05:00:38;98293.742188;;;20.950001;31.387695
77517;BME280;66628;53.946;27.634;2023-02-03T05:01:38;98294.390625;;;20.950001;31.522461
77517;BME280;66628;53.946;27.634;2023-02-03T05:02:38;98292.945312;;;20.950001;31.510742
77517;BME280;66628;53.946;27.634;2023-02-03T05:03:38;98295.218750;;;20.950001;31.623047
77517;BME280;66628;53.946;27.634;2023-02-03T05:04:38;98300.296875;;;20.950001;31.386719
77517;BME280;66628;53.946;27.634;2023-02-03T05:05:38;98300.296875;;;20.950001;31.331055
77517;BME280;66628;53.946;27.634;2023-02-03T05:06:38;98301.453125;;;20.940001;31.297852